sensor_id;sensor_type;location;lat;lon;timestamp;P1;durP1;ratioP1;P2;durP2;ratioP2
62654;SDS011;48717;55.556;37.816;2023-04-15T00:01:52;2.67;;;1.63;;
62654;SDS011;48717;55.556;37.816;2023-04-15T00:04:19;2.20;;;1.50;;
62654;SDS011;48717;55.556;37.816;2023-04-15T00:06:50;3.63;;;1.60;;
62654;SDS011;48717;55.556;37.816;2023-04-15T00:09:20;2.05;;;1.63;;
62654;SDS011;48717;55.556;37.816;2023-04-15T00:11:48;1.70;;;1.30;;
62654;SDS011;48717;55.556;37.816;2023-04-15T00:14:16;8.50;;;1.45;;
62654;SDS011;48717;55.556;37.816;2023-04-15T00:16:43;2.83;;;1.38;;
62654;SDS011;48717;55.556;37.816;2023-04-15T00:19:10;2.67;;;1.25;;
62654;SDS011;48717;55.556;37.816;2023-04-15T00:21:37;2.85;;;1.50;;
62654;SDS011;48717;55.556;37.816;2023-04-15T00:24:04;3.78;;;1.20;;
62654;SDS011;48717;55.556;37.816;2023-04-15T00:26:32;1.90;;;1.30;;
62654;SDS011;48717;55.556;37.816;2023-04-15T00:28:59;3.65;;;1.48;;
62654;SDS011;48717;55.556;37.816;2023-04-15T00:31:27;2.42;;;1.25;;
62654;SDS011;48717;55.556;37.816;2023-04-15T00:33:54;3.10;;;1.55;;
62654;SDS011;48717;55.556;37.816;2023-04-15T00:36:21;4.50;;;1.50;;
62654;SDS011;48717;55.556;37.816;2023-04-15T00:38:49;5.03;;;1.50;;
62654;SDS011;48717;55.556;37.816;2023-04-15T00:41:17;2.15;;;1.27;;
62654;SDS011;48717;55.556;37.816;2023-04-15T00:43:45;4.45;;;1.42;;
62654;SDS011;48717;55.556;37.816;2023-04-15T00:46:12;4.38;;;1.75;;
62654;SDS011;48717;55.556;37.816;2023-04-15T00:48:43;1.55;;;1.30;;
62654;SDS011;48717;55.556;37.816;2023-04-15T00:51:10;1.95;;;1.20;;
62654;SDS011;48717;55.556;37.816;2023-04-15T00:53:40;2.55;;;1.30;;
62654;SDS011;48717;55.556;37.816;2023-04-15T00:56:07;4.35;;;1.25;;
62654;SDS011;48717;55.556;37.816;2023-04-15T00:58:34;2.60;;;1.40;;
62654;SDS011;48717;55.556;37.816;2023-04-15T01:01:02;2.47;;;1.33;;
62654;SDS011;48717;55.556;37.816;2023-04-15T01:03:30;2.95;;;1.30;;
62654;SDS011;48717;55.556;37.816;2023-04-15T01:05:59;4.35;;;1.45;;
62654;SDS011;48717;55.556;37.816;2023-04-15T01:08:29;2.53;;;1.05;;
62654;SDS011;48717;55.556;37.816;2023-04-15T01:11:00;3.60;;;1.20;;
62654;SDS011;48717;55.556;37.816;2023-04-15T01:13:29;3.08;;;1.00;;
62654;SDS011;48717;55.556;37.816;2023-04-15T01:15:56;3.60;;;1.50;;
62654;SDS011;48717;55.556;37.816;2023-04-15T01:18:24;3.00;;;1.20;;
62654;SDS011;48717;55.556;37.816;2023-04-15T01:20:51;2.78;;;1.20;;
62654;SDS011;48717;55.556;37.816;2023-04-15T01:23:22;2.38;;;1.30;;
62654;SDS011;48717;55.556;37.816;2023-04-15T01:25:49;4.15;;;1.30;;
62654;SDS011;48717;55.556;37.816;2023-04-15T01:28:18;4.95;;;1.38;;
62654;SDS011;48717;55.556;37.816;2023-04-15T01:30:46;4.53;;;1.55;;
62654;SDS011;48717;55.556;37.816;2023-04-15T01:33:13;1.98;;;1.23;;
62654;SDS011;48717;55.556;37.816;2023-04-15T01:36:00;2.20;;;1.40;;
62654;SDS011;48717;55.556;37.816;2023-04-15T01:38:27;1.40;;;1.02;;
62654;SDS011;48717;55.556;37.816;2023-04-15T01:40:55;3.40;;;1.45;;
62654;SDS011;48717;55.556;37.816;2023-04-15T01:43:24;4.35;;;1.25;;
62654;SDS011;48717;55.556;37.816;2023-04-15T01:45:52;3.75;;;1.35;;
62654;SDS011;48717;55.556;37.816;2023-04-15T01:48:19;4.65;;;1.40;;
62654;SDS011;48717;55.556;37.816;2023-04-15T01:50:46;2.72;;;1.30;;
62654;SDS011;48717;55.556;37.816;2023-04-15T01:53:13;3.05;;;1.17;;
62654;SDS011;48717;55.556;37.816;2023-04-15T01:55:41;3.20;;;1.23;;
62654;SDS011;48717;55.556;37.816;2023-04-15T01:58:08;3.53;;;1.42;;
62654;SDS011;48717;55.556;37.816;2023-04-15T02:00:35;3.38;;;1.45;;
62654;SDS011;48717;55.556;37.816;2023-04-15T02:03:02;1.77;;;1.25;;
62654;SDS011;48717;55.556;37.816;2023-04-15T02:05:30;2.72;;;1.45;;
62654;SDS011;48717;55.556;37.816;2023-04-15T02:07:57;3.03;;;1.30;;
62654;SDS011;48717;55.556;37.816;2023-04-15T02:10:24;3.70;;;1.33;;
62654;SDS011;48717;55.556;37.816;2023-04-15T02:12:52;3.22;;;1.70;;
62654;SDS011;48717;55.556;37.816;2023-04-15T02:15:20;6.50;;;1.40;;
62654;SDS011;48717;55.556;37.816;2023-04-15T02:17:48;2.55;;;1.60;;
62654;SDS011;48717;55.556;37.816;2023-04-15T02:20:18;4.10;;;1.20;;
62654;SDS011;48717;55.556;37.816;2023-04-15T02:22:47;7.30;;;1.30;;
62654;SDS011;48717;55.556;37.816;2023-04-15T02:25:14;5.20;;;1.27;;
62654;SDS011;48717;55.556;37.816;2023-04-15T02:27:45;3.55;;;1.50;;
62654;SDS011;48717;55.556;37.816;2023-04-15T02:30:17;4.32;;;1.58;;
62654;SDS011;48717;55.556;37.816;2023-04-15T02:32:44;2.30;;;1.35;;
62654;SDS011;48717;55.556;37.816;2023-04-15T02:35:12;4.35;;;1.35;;
62654;SDS011;48717;55.556;37.816;2023-04-15T02:37:39;3.67;;;1.13;;
62654;SDS011;48717;55.556;37.816;2023-04-15T02:40:10;4.47;;;1.40;;
62654;SDS011;48717;55.556;37.816;2023-04-15T02:42:38;2.78;;;1.50;;
62654;SDS011;48717;55.556;37.816;2023-04-15T02:45:08;2.95;;;1.33;;
62654;SDS011;48717;55.556;37.816;2023-04-15T02:47:38;6.28;;;1.40;;
62654;SDS011;48717;55.556;37.816;2023-04-15T02:50:10;4.93;;;1.92;;
62654;SDS011;48717;55.556;37.816;2023-04-15T02:52:40;3.13;;;1.67;;
62654;SDS011;48717;55.556;37.816;2023-04-15T02:55:09;4.05;;;2.05;;
62654;SDS011;48717;55.556;37.816;2023-04-15T02:57:36;6.93;;;1.55;;
62654;SDS011;48717;55.556;37.816;2023-04-15T03:00:06;7.85;;;1.42;;
62654;SDS011;48717;55.556;37.816;2023-04-15T03:02:38;2.67;;;1.60;;
62654;SDS011;48717;55.556;37.816;2023-04-15T03:05:11;2.45;;;1.35;;
62654;SDS011;48717;55.556;37.816;2023-04-15T03:07:45;3.47;;;1.95;;
62654;SDS011;48717;55.556;37.816;2023-04-15T03:10:12;4.05;;;1.50;;
62654;SDS011;48717;55.556;37.816;2023-04-15T03:12:40;4.78;;;1.48;;
62654;SDS011;48717;55.556;37.816;2023-04-15T03:15:10;3.13;;;1.70;;
62654;SDS011;48717;55.556;37.816;2023-04-15T03:17:42;3.42;;;1.20;;
62654;SDS011;48717;55.556;37.816;2023-04-15T03:20:09;3.65;;;1.70;;
62654;SDS011;48717;55.556;37.816;2023-04-15T03:22:37;6.68;;;1.48;;
62654;SDS011;48717;55.556;37.816;2023-04-15T03:25:04;3.33;;;1.85;;
62654;SDS011;48717;55.556;37.816;2023-04-15T03:27:32;3.33;;;1.40;;
62654;SDS011;48717;55.556;37.816;2023-04-15T03:30:01;4.63;;;1.60;;
62654;SDS011;48717;55.556;37.816;2023-04-15T03:32:31;6.07;;;1.30;;
62654;SDS011;48717;55.556;37.816;2023-04-15T03:34:59;4.95;;;1.55;;
62654;SDS011;48717;55.556;37.816;2023-04-15T03:37:26;5.38;;;1.58;;
62654;SDS011;48717;55.556;37.816;2023-04-15T03:39:53;4.47;;;1.70;;
62654;SDS011;48717;55.556;37.816;2023-04-15T03:42:20;6.53;;;1.90;;
62654;SDS011;48717;55.556;37.816;2023-04-15T03:44:47;14.00;;;1.67;;
62654;SDS011;48717;55.556;37.816;2023-04-15T03:47:14;5.30;;;1.70;;
62654;SDS011;48717;55.556;37.816;2023-04-15T03:49:41;10.52;;;4.25;;
62654;SDS011;48717;55.556;37.816;2023-04-15T03:52:08;3.97;;;1.95;;
62654;SDS011;48717;55.556;37.816;2023-04-15T03:54:36;4.95;;;1.70;;
62654;SDS011;48717;55.556;37.816;2023-04-15T03:57:03;4.03;;;1.40;;
62654;SDS011;48717;55.556;37.816;2023-04-15T03:59:30;4.25;;;1.70;;
62654;SDS011;48717;55.556;37.816;2023-04-15T04:01:57;4.40;;;1.75;;
62654;SDS011;48717;55.556;37.816;2023-04-15T04:04:24;5.60;;;1.80;;
62654;SDS011;48717;55.556;37.816;2023-04-15T04:06:51;14.57;;;1.83;;
62654;SDS011;48717;55.556;37.816;2023-04-15T04:09:18;4.50;;;1.80;;
62654;SDS011;48717;55.556;37.816;2023-04-15T04:11:45;4.82;;;2.20;;
62654;SDS011;48717;55.556;37.816;2023-04-15T04:14:12;6.30;;;2.08;;
62654;SDS011;48717;55.556;37.816;2023-04-15T04:16:39;4.47;;;1.75;;
62654;SDS011;48717;55.556;37.816;2023-04-15T04:19:06;5.70;;;1.58;;
62654;SDS011;48717;55.556;37.816;2023-04-15T04:21:34;8.68;;;2.10;;
62654;SDS011;48717;55.556;37.816;2023-04-15T04:24:02;3.90;;;1.60;;
62654;SDS011;48717;55.556;37.816;2023-04-15T04:26:29;6.82;;;2.35;;
62654;SDS011;48717;55.556;37.816;2023-04-15T04:28:56;4.88;;;1.50;;
62654;SDS011;48717;55.556;37.816;2023-04-15T04:31:23;2.92;;;1.60;;
62654;SDS011;48717;55.556;37.816;2023-04-15T04:33:50;5.65;;;1.70;;
62654;SDS011;48717;55.556;37.816;2023-04-15T04:36:17;3.55;;;1.63;;
62654;SDS011;48717;55.556;37.816;2023-04-15T04:38:44;8.50;;;2.10;;
62654;SDS011;48717;55.556;37.816;2023-04-15T04:41:11;6.05;;;1.65;;
62654;SDS011;48717;55.556;37.816;2023-04-15T04:43:38;3.15;;;1.88;;
62654;SDS011;48717;55.556;37.816;2023-04-15T04:46:05;2.95;;;1.58;;
62654;SDS011;48717;55.556;37.816;2023-04-15T04:48:32;7.35;;;1.80;;
62654;SDS011;48717;55.556;37.816;2023-04-15T04:51:00;5.82;;;1.65;;
62654;SDS011;48717;55.556;37.816;2023-04-15T04:53:27;6.72;;;1.90;;
62654;SDS011;48717;55.556;37.816;2023-04-15T04:55:54;4.80;;;2.03;;
62654;SDS011;48717;55.556;37.816;2023-04-15T04:58:21;8.13;;;2.30;;
62654;SDS011;48717;55.556;37.816;2023-04-15T05:00:48;5.72;;;1.90;;
62654;SDS011;48717;55.556;37.816;2023-04-15T05:03:16;2.42;;;1.17;;
62654;SDS011;48717;55.556;37.816;2023-04-15T05:05:43;6.78;;;2.00;;
62654;SDS011;48717;55.556;37.816;2023-04-15T05:08:10;6.13;;;2.00;;
62654;SDS011;48717;55.556;37.816;2023-04-15T05:10:37;9.23;;;1.85;;
62654;SDS011;48717;55.556;37.816;2023-04-15T05:13:04;5.68;;;1.90;;
62654;SDS011;48717;55.556;37.816;2023-04-15T05:15:32;4.03;;;1.80;;
62654;SDS011;48717;55.556;37.816;2023-04-15T05:18:00;2.58;;;1.50;;
62654;SDS011;48717;55.556;37.816;2023-04-15T05:20:27;5.43;;;1.83;;
62654;SDS011;48717;55.556;37.816;2023-04-15T05:22:54;7.60;;;1.80;;
62654;SDS011;48717;55.556;37.816;2023-04-15T05:25:21;5.88;;;1.80;;
62654;SDS011;48717;55.556;37.816;2023-04-15T05:27:48;19.58;;;6.13;;
62654;SDS011;48717;55.556;37.816;2023-04-15T05:30:16;2.95;;;1.50;;
62654;SDS011;48717;55.556;37.816;2023-04-15T05:32:43;7.90;;;2.38;;
62654;SDS011;48717;55.556;37.816;2023-04-15T05:35:10;3.45;;;1.73;;
62654;SDS011;48717;55.556;37.816;2023-04-15T05:37:38;7.53;;;1.65;;
62654;SDS011;48717;55.556;37.816;2023-04-15T05:40:05;4.25;;;1.80;;
62654;SDS011;48717;55.556;37.816;2023-04-15T05:42:32;3.88;;;1.80;;
62654;SDS011;48717;55.556;37.816;2023-04-15T05:45:01;2.25;;;1.48;;
62654;SDS011;48717;55.556;37.816;2023-04-15T05:47:31;3.30;;;1.73;;
62654;SDS011;48717;55.556;37.816;2023-04-15T05:49:58;2.88;;;1.73;;
62654;SDS011;48717;55.556;37.816;2023-04-15T05:52:25;2.00;;;1.30;;
62654;SDS011;48717;55.556;37.816;2023-04-15T05:54:52;5.82;;;1.77;;
62654;SDS011;48717;55.556;37.816;2023-04-15T05:57:20;8.07;;;2.28;;
62654;SDS011;48717;55.556;37.816;2023-04-15T05:59:47;11.75;;;1.70;;
62654;SDS011;48717;55.556;37.816;2023-04-15T06:02:15;7.72;;;2.40;;
62654;SDS011;48717;55.556;37.816;2023-04-15T06:04:42;9.63;;;2.17;;
62654;SDS011;48717;55.556;37.816;2023-04-15T06:07:09;3.42;;;1.70;;
62654;SDS011;48717;55.556;37.816;2023-04-15T06:09:36;2.72;;;1.70;;
62654;SDS011;48717;55.556;37.816;2023-04-15T06:12:03;3.25;;;1.88;;
62654;SDS011;48717;55.556;37.816;2023-04-15T06:14:32;3.53;;;1.50;;
62654;SDS011;48717;55.556;37.816;2023-04-15T06:16:59;7.63;;;1.88;;
62654;SDS011;48717;55.556;37.816;2023-04-15T06:19:26;4.53;;;1.52;;
62654;SDS011;48717;55.556;37.816;2023-04-15T06:21:54;3.88;;;1.52;;
62654;SDS011;48717;55.556;37.816;2023-04-15T06:24:21;8.05;;;2.10;;
62654;SDS011;48717;55.556;37.816;2023-04-15T06:26:48;3.85;;;1.60;;
62654;SDS011;48717;55.556;37.816;2023-04-15T06:29:15;3.78;;;1.80;;
62654;SDS011;48717;55.556;37.816;2023-04-15T06:34:13;6.85;;;1.77;;
62654;SDS011;48717;55.556;37.816;2023-04-15T06:36:40;3.22;;;1.73;;
62654;SDS011;48717;55.556;37.816;2023-04-15T06:39:07;4.32;;;1.70;;
62654;SDS011;48717;55.556;37.816;2023-04-15T06:41:34;7.30;;;3.78;;
62654;SDS011;48717;55.556;37.816;2023-04-15T06:44:02;5.03;;;1.95;;
62654;SDS011;48717;55.556;37.816;2023-04-15T06:46:29;8.50;;;1.67;;
62654;SDS011;48717;55.556;37.816;2023-04-15T06:48:56;4.25;;;1.40;;
62654;SDS011;48717;55.556;37.816;2023-04-15T06:51:23;3.80;;;1.42;;
62654;SDS011;48717;55.556;37.816;2023-04-15T06:53:52;4.50;;;2.03;;
62654;SDS011;48717;55.556;37.816;2023-04-15T06:56:24;5.93;;;2.08;;
62654;SDS011;48717;55.556;37.816;2023-04-15T06:58:51;6.57;;;2.38;;
62654;SDS011;48717;55.556;37.816;2023-04-15T07:01:18;5.57;;;2.00;;
62654;SDS011;48717;55.556;37.816;2023-04-15T07:03:45;4.88;;;1.90;;
62654;SDS011;48717;55.556;37.816;2023-04-15T07:06:13;5.45;;;1.85;;
62654;SDS011;48717;55.556;37.816;2023-04-15T07:08:40;4.82;;;1.90;;
62654;SDS011;48717;55.556;37.816;2023-04-15T07:11:08;5.68;;;1.70;;
62654;SDS011;48717;55.556;37.816;2023-04-15T07:13:35;3.55;;;2.10;;
62654;SDS011;48717;55.556;37.816;2023-04-15T07:16:02;4.03;;;1.98;;
62654;SDS011;48717;55.556;37.816;2023-04-15T07:18:41;2.45;;;1.33;;
62654;SDS011;48717;55.556;37.816;2023-04-15T07:21:09;7.32;;;2.13;;
62654;SDS011;48717;55.556;37.816;2023-04-15T07:23:36;4.85;;;2.10;;
62654;SDS011;48717;55.556;37.816;2023-04-15T07:26:03;7.60;;;2.17;;
62654;SDS011;48717;55.556;37.816;2023-04-15T07:28:30;5.50;;;2.03;;
62654;SDS011;48717;55.556;37.816;2023-04-15T07:30:57;6.70;;;1.85;;
62654;SDS011;48717;55.556;37.816;2023-04-15T07:33:24;2.88;;;1.50;;
62654;SDS011;48717;55.556;37.816;2023-04-15T07:35:51;5.82;;;1.52;;
62654;SDS011;48717;55.556;37.816;2023-04-15T07:38:18;4.90;;;1.65;;
62654;SDS011;48717;55.556;37.816;2023-04-15T07:40:45;6.53;;;1.40;;
62654;SDS011;48717;55.556;37.816;2023-04-15T07:43:12;5.25;;;1.90;;
62654;SDS011;48717;55.556;37.816;2023-04-15T07:45:40;7.95;;;2.50;;
62654;SDS011;48717;55.556;37.816;2023-04-15T07:48:07;3.67;;;1.67;;
62654;SDS011;48717;55.556;37.816;2023-04-15T07:50:34;3.70;;;1.80;;
62654;SDS011;48717;55.556;37.816;2023-04-15T07:53:01;4.97;;;1.65;;
62654;SDS011;48717;55.556;37.816;2023-04-15T07:55:28;3.38;;;1.65;;
62654;SDS011;48717;55.556;37.816;2023-04-15T07:57:56;4.03;;;1.67;;
62654;SDS011;48717;55.556;37.816;2023-04-15T08:00:23;3.80;;;2.08;;
62654;SDS011;48717;55.556;37.816;2023-04-15T08:02:50;8.18;;;3.00;;
62654;SDS011;48717;55.556;37.816;2023-04-15T08:05:19;7.10;;;1.88;;
62654;SDS011;48717;55.556;37.816;2023-04-15T08:07:46;8.73;;;1.92;;
62654;SDS011;48717;55.556;37.816;2023-04-15T08:10:13;4.57;;;1.85;;
62654;SDS011;48717;55.556;37.816;2023-04-15T08:12:41;7.38;;;2.30;;
62654;SDS011;48717;55.556;37.816;2023-04-15T08:15:08;5.18;;;1.90;;
62654;SDS011;48717;55.556;37.816;2023-04-15T08:17:36;2.70;;;1.70;;
62654;SDS011;48717;55.556;37.816;2023-04-15T08:20:08;2.78;;;1.80;;
62654;SDS011;48717;55.556;37.816;2023-04-15T08:22:54;7.38;;;2.22;;
62654;SDS011;48717;55.556;37.816;2023-04-15T08:25:22;5.82;;;1.95;;
62654;SDS011;48717;55.556;37.816;2023-04-15T08:27:49;5.43;;;1.70;;
62654;SDS011;48717;55.556;37.816;2023-04-15T08:30:23;7.97;;;2.83;;
62654;SDS011;48717;55.556;37.816;2023-04-15T08:32:50;5.15;;;1.60;;
62654;SDS011;48717;55.556;37.816;2023-04-15T08:35:18;3.17;;;1.40;;
62654;SDS011;48717;55.556;37.816;2023-04-15T08:37:45;3.25;;;1.70;;
62654;SDS011;48717;55.556;37.816;2023-04-15T08:40:12;7.55;;;2.47;;
62654;SDS011;48717;55.556;37.816;2023-04-15T08:42:43;4.90;;;2.00;;
62654;SDS011;48717;55.556;37.816;2023-04-15T08:45:14;4.45;;;1.88;;
62654;SDS011;48717;55.556;37.816;2023-04-15T08:47:43;2.78;;;2.08;;
62654;SDS011;48717;55.556;37.816;2023-04-15T08:50:13;6.07;;;2.70;;
62654;SDS011;48717;55.556;37.816;2023-04-15T08:52:40;5.22;;;2.05;;
62654;SDS011;48717;55.556;37.816;2023-04-15T08:55:08;5.60;;;1.92;;
62654;SDS011;48717;55.556;37.816;2023-04-15T08:57:37;8.25;;;2.63;;
62654;SDS011;48717;55.556;37.816;2023-04-15T09:00:05;5.25;;;2.40;;
62654;SDS011;48717;55.556;37.816;2023-04-15T09:02:33;2.95;;;1.90;;
62654;SDS011;48717;55.556;37.816;2023-04-15T09:05:01;7.10;;;2.55;;
62654;SDS011;48717;55.556;37.816;2023-04-15T09:07:32;6.60;;;2.05;;
62654;SDS011;48717;55.556;37.816;2023-04-15T09:10:00;5.28;;;2.58;;
62654;SDS011;48717;55.556;37.816;2023-04-15T09:12:27;7.40;;;2.40;;
62654;SDS011;48717;55.556;37.816;2023-04-15T09:14:54;3.90;;;2.35;;
62654;SDS011;48717;55.556;37.816;2023-04-15T09:17:22;6.50;;;3.10;;
62654;SDS011;48717;55.556;37.816;2023-04-15T09:20:06;5.78;;;2.58;;
62654;SDS011;48717;55.556;37.816;2023-04-15T09:22:34;4.47;;;2.40;;
62654;SDS011;48717;55.556;37.816;2023-04-15T09:25:14;7.93;;;3.28;;
62654;SDS011;48717;55.556;37.816;2023-04-15T09:28:02;6.60;;;2.38;;
62654;SDS011;48717;55.556;37.816;2023-04-15T09:30:30;6.78;;;2.70;;
62654;SDS011;48717;55.556;37.816;2023-04-15T09:32:58;4.57;;;2.63;;
62654;SDS011;48717;55.556;37.816;2023-04-15T09:35:27;4.72;;;2.60;;
62654;SDS011;48717;55.556;37.816;2023-04-15T09:38:04;6.80;;;2.50;;
62654;SDS011;48717;55.556;37.816;2023-04-15T09:40:37;7.20;;;3.20;;
62654;SDS011;48717;55.556;37.816;2023-04-15T09:43:06;6.53;;;1.80;;
62654;SDS011;48717;55.556;37.816;2023-04-15T09:45:35;6.70;;;2.13;;
62654;SDS011;48717;55.556;37.816;2023-04-15T09:48:16;7.30;;;2.40;;
62654;SDS011;48717;55.556;37.816;2023-04-15T09:50:44;4.03;;;2.22;;
62654;SDS011;48717;55.556;37.816;2023-04-15T09:53:15;3.50;;;2.10;;
62654;SDS011;48717;55.556;37.816;2023-04-15T09:55:44;3.28;;;2.22;;
62654;SDS011;48717;55.556;37.816;2023-04-15T10:00:51;8.43;;;2.72;;
62654;SDS011;48717;55.556;37.816;2023-04-15T10:03:20;7.25;;;4.63;;
62654;SDS011;48717;55.556;37.816;2023-04-15T10:05:50;6.63;;;2.55;;
62654;SDS011;48717;55.556;37.816;2023-04-15T10:08:19;6.50;;;2.10;;
62654;SDS011;48717;55.556;37.816;2023-04-15T10:10:49;4.90;;;2.30;;
62654;SDS011;48717;55.556;37.816;2023-04-15T10:13:21;7.63;;;2.25;;
62654;SDS011;48717;55.556;37.816;2023-04-15T10:15:50;12.30;;;2.63;;
62654;SDS011;48717;55.556;37.816;2023-04-15T10:18:28;5.43;;;2.80;;
62654;SDS011;48717;55.556;37.816;2023-04-15T10:21:00;6.40;;;2.58;;
62654;SDS011;48717;55.556;37.816;2023-04-15T10:23:28;5.90;;;2.40;;
62654;SDS011;48717;55.556;37.816;2023-04-15T10:25:55;4.20;;;2.30;;
62654;SDS011;48717;55.556;37.816;2023-04-15T10:28:24;6.60;;;2.30;;
62654;SDS011;48717;55.556;37.816;2023-04-15T10:30:52;5.80;;;2.15;;
62654;SDS011;48717;55.556;37.816;2023-04-15T10:33:40;6.10;;;2.30;;
62654;SDS011;48717;55.556;37.816;2023-04-15T10:36:23;3.75;;;1.75;;
62654;SDS011;48717;55.556;37.816;2023-04-15T10:38:56;5.60;;;2.58;;
62654;SDS011;48717;55.556;37.816;2023-04-15T10:41:32;6.13;;;1.77;;
62654;SDS011;48717;55.556;37.816;2023-04-15T10:44:04;4.80;;;1.80;;
62654;SDS011;48717;55.556;37.816;2023-04-15T10:46:40;8.80;;;2.13;;
62654;SDS011;48717;55.556;37.816;2023-04-15T10:49:13;2.83;;;2.03;;
62654;SDS011;48717;55.556;37.816;2023-04-15T10:51:42;6.70;;;2.42;;
62654;SDS011;48717;55.556;37.816;2023-04-15T10:56:50;4.95;;;1.95;;
62654;SDS011;48717;55.556;37.816;2023-04-15T10:59:35;2.80;;;2.03;;
62654;SDS011;48717;55.556;37.816;2023-04-15T11:02:05;5.97;;;2.10;;
62654;SDS011;48717;55.556;37.816;2023-04-15T11:07:39;4.88;;;2.30;;
62654;SDS011;48717;55.556;37.816;2023-04-15T11:12:49;4.50;;;2.40;;
62654;SDS011;48717;55.556;37.816;2023-04-15T11:18:08;7.85;;;3.97;;
62654;SDS011;48717;55.556;37.816;2023-04-15T11:20:37;6.22;;;3.00;;
62654;SDS011;48717;55.556;37.816;2023-04-15T11:23:05;6.88;;;2.53;;
62654;SDS011;48717;55.556;37.816;2023-04-15T11:25:41;8.43;;;3.22;;
62654;SDS011;48717;55.556;37.816;2023-04-15T11:28:10;8.30;;;3.42;;
62654;SDS011;48717;55.556;37.816;2023-04-15T11:30:38;5.50;;;2.70;;
62654;SDS011;48717;55.556;37.816;2023-04-15T11:33:09;6.65;;;4.15;;
62654;SDS011;48717;55.556;37.816;2023-04-15T11:35:40;5.18;;;2.30;;
62654;SDS011;48717;55.556;37.816;2023-04-15T11:38:09;4.47;;;2.67;;
62654;SDS011;48717;55.556;37.816;2023-04-15T11:40:37;6.15;;;2.63;;
62654;SDS011;48717;55.556;37.816;2023-04-15T11:43:12;4.18;;;2.15;;
62654;SDS011;48717;55.556;37.816;2023-04-15T11:48:25;14.82;;;3.70;;
62654;SDS011;48717;55.556;37.816;2023-04-15T11:50:54;5.95;;;2.80;;
62654;SDS011;48717;55.556;37.816;2023-04-15T11:56:22;8.10;;;2.67;;
62654;SDS011;48717;55.556;37.816;2023-04-15T11:58:56;8.00;;;3.35;;
62654;SDS011;48717;55.556;37.816;2023-04-15T12:01:32;5.13;;;2.83;;
62654;SDS011;48717;55.556;37.816;2023-04-15T12:06:39;6.75;;;2.85;;
62654;SDS011;48717;55.556;37.816;2023-04-15T12:09:17;6.53;;;3.40;;
62654;SDS011;48717;55.556;37.816;2023-04-15T12:11:47;9.18;;;2.70;;
62654;SDS011;48717;55.556;37.816;2023-04-15T12:14:28;12.85;;;3.03;;
62654;SDS011;48717;55.556;37.816;2023-04-15T12:16:57;8.00;;;2.55;;
62654;SDS011;48717;55.556;37.816;2023-04-15T12:19:29;6.75;;;3.03;;
62654;SDS011;48717;55.556;37.816;2023-04-15T12:21:59;18.90;;;3.88;;
62654;SDS011;48717;55.556;37.816;2023-04-15T12:24:30;5.22;;;2.80;;
62654;SDS011;48717;55.556;37.816;2023-04-15T12:27:05;8.68;;;3.92;;
62654;SDS011;48717;55.556;37.816;2023-04-15T12:29:34;10.35;;;3.22;;
62654;SDS011;48717;55.556;37.816;2023-04-15T12:32:05;5.43;;;2.90;;
62654;SDS011;48717;55.556;37.816;2023-04-15T12:37:02;6.55;;;3.10;;
62654;SDS011;48717;55.556;37.816;2023-04-15T12:39:34;5.93;;;3.28;;
62654;SDS011;48717;55.556;37.816;2023-04-15T12:42:02;9.85;;;3.03;;
62654;SDS011;48717;55.556;37.816;2023-04-15T12:44:31;8.68;;;2.90;;
62654;SDS011;48717;55.556;37.816;2023-04-15T12:47:00;14.60;;;4.03;;
62654;SDS011;48717;55.556;37.816;2023-04-15T12:49:30;7.80;;;3.10;;
62654;SDS011;48717;55.556;37.816;2023-04-15T12:51:59;14.60;;;3.33;;
62654;SDS011;48717;55.556;37.816;2023-04-15T12:54:28;6.63;;;2.75;;
62654;SDS011;48717;55.556;37.816;2023-04-15T12:56:56;9.52;;;2.63;;
62654;SDS011;48717;55.556;37.816;2023-04-15T12:59:23;7.63;;;2.55;;
62654;SDS011;48717;55.556;37.816;2023-04-15T13:01:51;5.10;;;2.33;;
62654;SDS011;48717;55.556;37.816;2023-04-15T13:04:20;6.10;;;2.42;;
62654;SDS011;48717;55.556;37.816;2023-04-15T13:06:48;3.40;;;2.30;;
62654;SDS011;48717;55.556;37.816;2023-04-15T13:09:15;6.43;;;2.58;;
62654;SDS011;48717;55.556;37.816;2023-04-15T13:11:43;4.63;;;2.50;;
62654;SDS011;48717;55.556;37.816;2023-04-15T13:14:10;5.50;;;2.78;;
62654;SDS011;48717;55.556;37.816;2023-04-15T13:16:46;4.80;;;2.42;;
62654;SDS011;48717;55.556;37.816;2023-04-15T13:19:47;5.13;;;2.40;;
62654;SDS011;48717;55.556;37.816;2023-04-15T13:26:15;10.05;;;3.10;;
62654;SDS011;48717;55.556;37.816;2023-04-15T13:29:12;13.40;;;3.00;;
62654;SDS011;48717;55.556;37.816;2023-04-15T13:31:50;4.03;;;2.40;;
62654;SDS011;48717;55.556;37.816;2023-04-15T13:34:18;7.03;;;2.97;;
62654;SDS011;48717;55.556;37.816;2023-04-15T13:36:52;7.45;;;2.90;;
62654;SDS011;48717;55.556;37.816;2023-04-15T13:43:09;5.72;;;2.40;;
62654;SDS011;48717;55.556;37.816;2023-04-15T13:45:59;3.53;;;2.30;;
62654;SDS011;48717;55.556;37.816;2023-04-15T13:48:33;9.40;;;3.13;;
62654;SDS011;48717;55.556;37.816;2023-04-15T13:51:15;5.65;;;2.75;;
62654;SDS011;48717;55.556;37.816;2023-04-15T13:54:58;6.72;;;2.10;;
62654;SDS011;48717;55.556;37.816;2023-04-15T13:58:12;6.03;;;2.30;;
62654;SDS011;48717;55.556;37.816;2023-04-15T14:00:57;11.02;;;3.50;;
62654;SDS011;48717;55.556;37.816;2023-04-15T14:03:24;7.63;;;2.85;;
62654;SDS011;48717;55.556;37.816;2023-04-15T14:05:52;6.78;;;3.45;;
62654;SDS011;48717;55.556;37.816;2023-04-15T14:08:21;7.87;;;3.10;;
62654;SDS011;48717;55.556;37.816;2023-04-15T14:10:50;9.65;;;3.15;;
62654;SDS011;48717;55.556;37.816;2023-04-15T14:13:17;8.35;;;3.42;;
62654;SDS011;48717;55.556;37.816;2023-04-15T14:15:45;6.88;;;2.90;;
62654;SDS011;48717;55.556;37.816;2023-04-15T14:18:13;6.90;;;2.83;;
62654;SDS011;48717;55.556;37.816;2023-04-15T14:20:40;15.43;;;4.47;;
62654;SDS011;48717;55.556;37.816;2023-04-15T14:23:07;8.15;;;3.17;;
62654;SDS011;48717;55.556;37.816;2023-04-15T14:25:34;8.38;;;2.50;;
62654;SDS011;48717;55.556;37.816;2023-04-15T14:28:04;9.63;;;4.78;;
62654;SDS011;48717;55.556;37.816;2023-04-15T14:30:31;4.28;;;1.95;;
62654;SDS011;48717;55.556;37.816;2023-04-15T14:32:59;3.72;;;2.30;;
62654;SDS011;48717;55.556;37.816;2023-04-15T14:35:26;5.55;;;2.33;;
62654;SDS011;48717;55.556;37.816;2023-04-15T14:37:54;8.80;;;2.30;;
62654;SDS011;48717;55.556;37.816;2023-04-15T14:40:22;3.53;;;2.22;;
62654;SDS011;48717;55.556;37.816;2023-04-15T14:42:49;10.00;;;4.78;;
62654;SDS011;48717;55.556;37.816;2023-04-15T14:45:18;8.23;;;2.60;;
62654;SDS011;48717;55.556;37.816;2023-04-15T14:47:45;8.10;;;3.05;;
62654;SDS011;48717;55.556;37.816;2023-04-15T14:50:13;11.70;;;5.10;;
62654;SDS011;48717;55.556;37.816;2023-04-15T14:52:40;12.65;;;5.55;;
62654;SDS011;48717;55.556;37.816;2023-04-15T14:55:08;11.02;;;5.55;;
62654;SDS011;48717;55.556;37.816;2023-04-15T14:57:37;7.15;;;2.88;;
62654;SDS011;48717;55.556;37.816;2023-04-15T15:00:05;8.73;;;4.40;;
62654;SDS011;48717;55.556;37.816;2023-04-15T15:02:34;5.97;;;3.67;;
62654;SDS011;48717;55.556;37.816;2023-04-15T15:05:08;5.60;;;3.13;;
62654;SDS011;48717;55.556;37.816;2023-04-15T15:07:37;5.50;;;2.40;;
62654;SDS011;48717;55.556;37.816;2023-04-15T15:10:08;5.78;;;2.85;;
62654;SDS011;48717;55.556;37.816;2023-04-15T15:12:35;5.18;;;2.53;;
62654;SDS011;48717;55.556;37.816;2023-04-15T15:15:02;5.85;;;2.65;;
62654;SDS011;48717;55.556;37.816;2023-04-15T15:17:41;9.77;;;2.72;;
62654;SDS011;48717;55.556;37.816;2023-04-15T15:20:09;5.10;;;2.30;;
62654;SDS011;48717;55.556;37.816;2023-04-15T15:22:42;9.02;;;2.58;;